Terminal Aerodrome Forecast
Issued by NWS Lake Charles, LA

Home | Current Version | Previous Version | Text Only | Print | Product List | Glossary On
Versions: 1 2 3 4 5 6 7 8 9 10 11 12 13 14
000
FTUS44 KLCH 281932 AAA
TAFLFT
TAF AMD
KLFT 281932Z 2820/2918 14008KT P6SM VCSH SCT025 BKN050
      TEMPO 2820/2822 5SM -SHRA BR BKN025
     FM290300 VRB05KT P6SM SCT015 BKN120
     FM291000 14006KT P6SM -SHRA OVC015=

USA.gov is the U.S. government's official web portal to all federal, state and local government web resources and services.